Sunriver, OR

7:20 PM PDT on June 01, 2015 (GMT -0700)
Three Rivers W7JST | | Change Station
CLOSE
Current Station
Personal Weather Station
Location: Bend, OR
Elevation: 4190 ft
Nearby Weather Stations

Elev 4190 ft 43.81 °N, 121.46 °W | Updated 10 minutes ago

Partly Cloudy
Partly Cloudy
52.3 °F
Feels Like 52.3 °F
N
1.7
Wind Variable Wind from West

Today
High -- | Low -- °F
--% Chance of Precip.
Yesterday
High -- | Low -- °F
Precip. -- in
5:26 AM 8:41 PM
Full, 100% visible
Pressure 29.96 in
Visibility 10.0 miles
Clouds Few 6000 ft
Dew Point 52 °F
Humidity 99%
Rainfall 1.01 in
Snow Depth Not available.
UV 1 out of 12
Pollen 2.80 out of 12
Air Quality Not available.
Flu Activity Sporadic
METAR KBDN 020215Z AUTO 22008KT 10SM FEW060 13/10 A2996 RMK AO2

More Conditions Fewer Conditions

Pressure 29.96 in
Visibility 10.0 miles
Clouds Few 6000 ft
Dew Point 52 °F
Humidity 99%
Rainfall 1.01 in
Snow Depth Not available.
UV 1 out of 12
Pollen 2.80 out of 12
Air Quality Not available.
Flu Activity Sporadic
METAR KBDN 020215Z AUTO 22008KT 10SM FEW060 13/10 A2996 RMK AO2

More Conditions Fewer Conditions

10-Day Weather Forecast

Almanac

Astronomy

Jun. 01, 2015 Rise Set
Actual Time
Civil Twilight
Nautical Twilight
Astronomical Twilight
Moon
Length of Visible Light
Length of Day
Tomorrow will be .
, % of the Moon is Illuminated

Today's Extremes

State Highs State Lows

Community

WunderPhotos

Upload Photos

1,825,857 photos uploaded!

WunderBlogs® & News

Nearby

Air Quality

  Air Quality AQ Index Pollutant
Not available.

Snow Depth

Station Depth Elevation

Earthquake Activity

City Distance Mag. Time & Date
Minimum magnitude displayed is 2.5.

Coastal Water Temperatures

Place Temperature

Stations

Nearby Weather Stations

Station Location Temp. Windchill Dew Point Humidity Wind Precip. Elev Updated Type